sensor_id;sensor_type;location;lat;lon;timestamp;P1;durP1;ratioP1;P2;durP2;ratioP2
2305;SDS011;1161;51.922;8.896;2023-02-18T00:02:36;14.40;;;6.27;;
2305;SDS011;1161;51.922;8.896;2023-02-18T00:05:12;22.97;;;6.50;;
2305;SDS011;1161;51.922;8.896;2023-02-18T00:07:42;25.07;;;6.90;;
2305;SDS011;1161;51.922;8.896;2023-02-18T00:10:11;18.13;;;8.50;;
2305;SDS011;1161;51.922;8.896;2023-02-18T00:12:50;27.30;;;9.97;;
2305;SDS011;1161;51.922;8.896;2023-02-18T00:15:34;31.67;;;10.10;;
2305;SDS011;1161;51.922;8.896;2023-02-18T00:18:05;24.20;;;10.47;;
2305;SDS011;1161;51.922;8.896;2023-02-18T00:20:49;23.57;;;10.40;;
2305;SDS011;1161;51.922;8.896;2023-02-18T00:23:16;31.93;;;13.43;;
2305;SDS011;1161;51.922;8.896;2023-02-18T00:25:57;29.30;;;12.03;;
2305;SDS011;1161;51.922;8.896;2023-02-18T00:28:25;26.97;;;13.30;;
2305;SDS011;1161;51.922;8.896;2023-02-18T00:31:08;51.60;;;15.60;;
2305;SDS011;1161;51.922;8.896;2023-02-18T00:33:37;35.97;;;15.93;;
2305;SDS011;1161;51.922;8.896;2023-02-18T00:36:12;45.03;;;15.97;;
2305;SDS011;1161;51.922;8.896;2023-02-18T00:38:49;34.87;;;15.03;;
2305;SDS011;1161;51.922;8.896;2023-02-18T00:41:19;36.73;;;16.27;;
2305;SDS011;1161;51.922;8.896;2023-02-18T00:43:53;45.23;;;19.67;;
2305;SDS011;1161;51.922;8.896;2023-02-18T00:46:33;32.83;;;16.57;;
2305;SDS011;1161;51.922;8.896;2023-02-18T00:49:15;47.03;;;17.00;;
2305;SDS011;1161;51.922;8.896;2023-02-18T00:52:00;38.83;;;17.40;;
2305;SDS011;1161;51.922;8.896;2023-02-18T00:54:27;43.33;;;16.20;;
2305;SDS011;1161;51.922;8.896;2023-02-18T00:56:54;45.60;;;17.37;;
2305;SDS011;1161;51.922;8.896;2023-02-18T00:59:23;55.17;;;19.03;;
2305;SDS011;1161;51.922;8.896;2023-02-18T01:01:51;52.23;;;18.60;;
2305;SDS011;1161;51.922;8.896;2023-02-18T01:04:19;36.77;;;16.67;;
2305;SDS011;1161;51.922;8.896;2023-02-18T01:06:48;42.07;;;17.17;;
2305;SDS011;1161;51.922;8.896;2023-02-18T01:09:18;47.00;;;19.80;;
2305;SDS011;1161;51.922;8.896;2023-02-18T01:11:46;41.57;;;18.20;;
2305;SDS011;1161;51.922;8.896;2023-02-18T01:14:12;44.40;;;17.77;;
2305;SDS011;1161;51.922;8.896;2023-02-18T01:16:46;43.50;;;19.33;;
2305;SDS011;1161;51.922;8.896;2023-02-18T01:19:13;36.43;;;17.13;;
2305;SDS011;1161;51.922;8.896;2023-02-18T01:21:40;50.43;;;21.90;;
2305;SDS011;1161;51.922;8.896;2023-02-18T01:24:14;46.83;;;22.17;;
2305;SDS011;1161;51.922;8.896;2023-02-18T01:26:42;53.20;;;20.27;;
2305;SDS011;1161;51.922;8.896;2023-02-18T01:29:10;52.07;;;21.50;;
2305;SDS011;1161;51.922;8.896;2023-02-18T01:31:39;76.30;;;25.67;;
2305;SDS011;1161;51.922;8.896;2023-02-18T01:34:09;53.40;;;22.77;;
2305;SDS011;1161;51.922;8.896;2023-02-18T01:36:37;56.87;;;21.97;;
2305;SDS011;1161;51.922;8.896;2023-02-18T01:39:06;65.37;;;22.90;;
2305;SDS011;1161;51.922;8.896;2023-02-18T01:41:32;52.97;;;22.73;;
2305;SDS011;1161;51.922;8.896;2023-02-18T01:44:11;64.47;;;23.20;;
2305;SDS011;1161;51.922;8.896;2023-02-18T01:46:46;70.37;;;26.13;;
2305;SDS011;1161;51.922;8.896;2023-02-18T01:49:17;58.93;;;22.83;;
2305;SDS011;1161;51.922;8.896;2023-02-18T01:51:46;57.53;;;21.97;;
2305;SDS011;1161;51.922;8.896;2023-02-18T01:54:29;86.20;;;26.73;;
2305;SDS011;1161;51.922;8.896;2023-02-18T01:56:59;83.67;;;28.60;;
2305;SDS011;1161;51.922;8.896;2023-02-18T01:59:29;68.50;;;23.33;;
2305;SDS011;1161;51.922;8.896;2023-02-18T02:01:58;66.20;;;26.07;;
2305;SDS011;1161;51.922;8.896;2023-02-18T02:04:26;64.63;;;26.93;;
2305;SDS011;1161;51.922;8.896;2023-02-18T02:06:53;66.13;;;27.43;;
2305;SDS011;1161;51.922;8.896;2023-02-18T02:09:28;61.43;;;24.23;;
2305;SDS011;1161;51.922;8.896;2023-02-18T02:15:00;59.77;;;24.77;;
2305;SDS011;1161;51.922;8.896;2023-02-18T02:17:33;70.63;;;25.73;;
2305;SDS011;1161;51.922;8.896;2023-02-18T02:20:29;57.90;;;26.40;;
2305;SDS011;1161;51.922;8.896;2023-02-18T02:23:11;77.53;;;27.47;;
2305;SDS011;1161;51.922;8.896;2023-02-18T02:25:57;66.20;;;27.63;;
2305;SDS011;1161;51.922;8.896;2023-02-18T02:28:48;58.87;;;25.87;;
2305;SDS011;1161;51.922;8.896;2023-02-18T02:31:35;77.60;;;28.00;;
2305;SDS011;1161;51.922;8.896;2023-02-18T02:34:27;64.20;;;25.50;;
2305;SDS011;1161;51.922;8.896;2023-02-18T02:36:59;65.07;;;26.80;;
2305;SDS011;1161;51.922;8.896;2023-02-18T02:39:29;70.50;;;29.07;;
2305;SDS011;1161;51.922;8.896;2023-02-18T02:42:01;59.57;;;23.53;;
2305;SDS011;1161;51.922;8.896;2023-02-18T02:44:35;66.17;;;27.27;;
2305;SDS011;1161;51.922;8.896;2023-02-18T02:47:07;64.20;;;25.57;;
2305;SDS011;1161;51.922;8.896;2023-02-18T02:49:38;57.23;;;25.80;;
2305;SDS011;1161;51.922;8.896;2023-02-18T02:52:11;69.57;;;26.90;;
2305;SDS011;1161;51.922;8.896;2023-02-18T02:54:39;69.00;;;28.27;;
2305;SDS011;1161;51.922;8.896;2023-02-18T02:57:07;66.13;;;27.40;;
2305;SDS011;1161;51.922;8.896;2023-02-18T02:59:35;68.77;;;26.57;;
2305;SDS011;1161;51.922;8.896;2023-02-18T03:02:07;75.77;;;28.83;;
2305;SDS011;1161;51.922;8.896;2023-02-18T03:04:56;84.90;;;30.60;;
2305;SDS011;1161;51.922;8.896;2023-02-18T03:07:33;66.73;;;27.23;;
2305;SDS011;1161;51.922;8.896;2023-02-18T03:10:31;76.30;;;28.97;;
2305;SDS011;1161;51.922;8.896;2023-02-18T03:13:06;65.17;;;28.20;;
2305;SDS011;1161;51.922;8.896;2023-02-18T03:15:38;79.43;;;28.83;;
2305;SDS011;1161;51.922;8.896;2023-02-18T03:18:07;63.83;;;25.30;;
2305;SDS011;1161;51.922;8.896;2023-02-18T03:20:40;62.90;;;27.80;;
2305;SDS011;1161;51.922;8.896;2023-02-18T03:23:10;79.80;;;28.40;;
2305;SDS011;1161;51.922;8.896;2023-02-18T03:25:41;73.47;;;28.87;;
2305;SDS011;1161;51.922;8.896;2023-02-18T03:28:08;84.33;;;32.87;;
2305;SDS011;1161;51.922;8.896;2023-02-18T03:30:38;74.50;;;29.03;;
2305;SDS011;1161;51.922;8.896;2023-02-18T03:33:08;70.40;;;28.57;;
2305;SDS011;1161;51.922;8.896;2023-02-18T03:35:39;71.63;;;25.00;;
2305;SDS011;1161;51.922;8.896;2023-02-18T03:38:08;74.47;;;27.80;;
2305;SDS011;1161;51.922;8.896;2023-02-18T03:40:39;57.43;;;26.00;;
2305;SDS011;1161;51.922;8.896;2023-02-18T03:43:06;66.83;;;25.50;;
2305;SDS011;1161;51.922;8.896;2023-02-18T03:45:33;78.60;;;22.50;;
2305;SDS011;1161;51.922;8.896;2023-02-18T03:48:00;59.87;;;27.60;;
2305;SDS011;1161;51.922;8.896;2023-02-18T03:50:27;51.50;;;23.70;;
2305;SDS011;1161;51.922;8.896;2023-02-18T03:52:55;52.87;;;21.33;;
2305;SDS011;1161;51.922;8.896;2023-02-18T03:55:22;59.87;;;20.37;;
2305;SDS011;1161;51.922;8.896;2023-02-18T03:57:49;47.47;;;21.67;;
2305;SDS011;1161;51.922;8.896;2023-02-18T04:00:16;42.33;;;18.20;;
2305;SDS011;1161;51.922;8.896;2023-02-18T04:02:51;49.57;;;18.37;;
2305;SDS011;1161;51.922;8.896;2023-02-18T04:05:18;35.33;;;14.63;;
2305;SDS011;1161;51.922;8.896;2023-02-18T04:07:45;35.03;;;12.80;;
2305;SDS011;1161;51.922;8.896;2023-02-18T04:10:14;28.83;;;12.90;;
2305;SDS011;1161;51.922;8.896;2023-02-18T04:12:41;25.23;;;12.07;;
2305;SDS011;1161;51.922;8.896;2023-02-18T04:15:08;23.73;;;10.83;;
2305;SDS011;1161;51.922;8.896;2023-02-18T04:17:36;18.20;;;8.17;;
2305;SDS011;1161;51.922;8.896;2023-02-18T04:20:04;17.40;;;9.13;;
2305;SDS011;1161;51.922;8.896;2023-02-18T04:22:32;20.73;;;8.40;;
2305;SDS011;1161;51.922;8.896;2023-02-18T04:24:59;22.30;;;11.43;;
2305;SDS011;1161;51.922;8.896;2023-02-18T04:27:29;23.93;;;11.37;;
2305;SDS011;1161;51.922;8.896;2023-02-18T04:29:57;25.77;;;9.60;;
2305;SDS011;1161;51.922;8.896;2023-02-18T04:32:24;21.60;;;9.67;;
2305;SDS011;1161;51.922;8.896;2023-02-18T04:34:50;21.10;;;9.50;;
2305;SDS011;1161;51.922;8.896;2023-02-18T04:37:17;25.90;;;10.43;;
2305;SDS011;1161;51.922;8.896;2023-02-18T04:39:45;23.53;;;10.73;;
2305;SDS011;1161;51.922;8.896;2023-02-18T04:42:12;26.10;;;10.57;;
2305;SDS011;1161;51.922;8.896;2023-02-18T04:44:41;36.37;;;14.07;;
2305;SDS011;1161;51.922;8.896;2023-02-18T04:47:11;31.77;;;11.90;;
2305;SDS011;1161;51.922;8.896;2023-02-18T04:49:38;29.90;;;14.13;;
2305;SDS011;1161;51.922;8.896;2023-02-18T04:52:05;36.60;;;16.30;;
2305;SDS011;1161;51.922;8.896;2023-02-18T04:54:33;45.50;;;16.03;;
2305;SDS011;1161;51.922;8.896;2023-02-18T04:57:00;50.87;;;17.30;;
2305;SDS011;1161;51.922;8.896;2023-02-18T04:59:27;51.60;;;18.07;;
2305;SDS011;1161;51.922;8.896;2023-02-18T05:01:55;52.00;;;21.00;;
2305;SDS011;1161;51.922;8.896;2023-02-18T05:04:25;50.30;;;20.47;;
2305;SDS011;1161;51.922;8.896;2023-02-18T05:06:52;37.70;;;19.50;;
2305;SDS011;1161;51.922;8.896;2023-02-18T05:09:20;48.70;;;18.20;;
2305;SDS011;1161;51.922;8.896;2023-02-18T05:11:48;57.87;;;20.83;;
2305;SDS011;1161;51.922;8.896;2023-02-18T05:14:15;47.90;;;19.23;;
2305;SDS011;1161;51.922;8.896;2023-02-18T05:16:43;43.70;;;17.20;;
2305;SDS011;1161;51.922;8.896;2023-02-18T05:19:13;49.80;;;19.90;;
2305;SDS011;1161;51.922;8.896;2023-02-18T05:21:41;52.17;;;22.33;;
2305;SDS011;1161;51.922;8.896;2023-02-18T05:24:08;52.83;;;19.63;;
2305;SDS011;1161;51.922;8.896;2023-02-18T05:26:35;50.10;;;18.83;;
2305;SDS011;1161;51.922;8.896;2023-02-18T05:29:05;44.20;;;18.57;;
2305;SDS011;1161;51.922;8.896;2023-02-18T05:31:33;43.83;;;17.43;;
2305;SDS011;1161;51.922;8.896;2023-02-18T05:34:02;43.03;;;16.00;;
2305;SDS011;1161;51.922;8.896;2023-02-18T05:36:30;36.33;;;13.70;;
2305;SDS011;1161;51.922;8.896;2023-02-18T05:38:57;45.97;;;17.07;;
2305;SDS011;1161;51.922;8.896;2023-02-18T05:41:25;38.80;;;14.90;;
2305;SDS011;1161;51.922;8.896;2023-02-18T05:43:52;35.33;;;13.27;;
2305;SDS011;1161;51.922;8.896;2023-02-18T05:46:39;33.03;;;12.33;;
2305;SDS011;1161;51.922;8.896;2023-02-18T05:49:06;23.70;;;11.37;;
2305;SDS011;1161;51.922;8.896;2023-02-18T05:51:34;21.13;;;9.60;;
2305;SDS011;1161;51.922;8.896;2023-02-18T05:54:01;28.63;;;11.50;;
2305;SDS011;1161;51.922;8.896;2023-02-18T05:56:28;21.23;;;11.43;;
2305;SDS011;1161;51.922;8.896;2023-02-18T05:58:55;25.73;;;11.87;;
2305;SDS011;1161;51.922;8.896;2023-02-18T06:01:25;31.97;;;13.17;;
2305;SDS011;1161;51.922;8.896;2023-02-18T06:03:53;35.90;;;12.27;;
2305;SDS011;1161;51.922;8.896;2023-02-18T06:06:29;38.70;;;17.30;;
2305;SDS011;1161;51.922;8.896;2023-02-18T06:08:59;32.33;;;13.33;;
2305;SDS011;1161;51.922;8.896;2023-02-18T06:11:27;42.30;;;12.87;;
2305;SDS011;1161;51.922;8.896;2023-02-18T06:13:56;27.23;;;11.80;;
2305;SDS011;1161;51.922;8.896;2023-02-18T06:16:25;29.93;;;13.50;;
2305;SDS011;1161;51.922;8.896;2023-02-18T06:18:53;23.13;;;9.13;;
2305;SDS011;1161;51.922;8.896;2023-02-18T06:21:23;23.80;;;10.50;;
2305;SDS011;1161;51.922;8.896;2023-02-18T06:23:52;16.20;;;8.67;;
2305;SDS011;1161;51.922;8.896;2023-02-18T06:26:22;19.73;;;8.20;;
2305;SDS011;1161;51.922;8.896;2023-02-18T06:28:51;20.83;;;9.13;;
2305;SDS011;1161;51.922;8.896;2023-02-18T06:31:18;19.70;;;9.20;;
2305;SDS011;1161;51.922;8.896;2023-02-18T06:33:47;21.33;;;6.40;;
2305;SDS011;1161;51.922;8.896;2023-02-18T06:36:18;15.07;;;7.10;;
2305;SDS011;1161;51.922;8.896;2023-02-18T06:38:46;15.13;;;9.40;;
2305;SDS011;1161;51.922;8.896;2023-02-18T06:41:13;18.43;;;7.20;;
2305;SDS011;1161;51.922;8.896;2023-02-18T06:43:42;9.33;;;5.13;;
2305;SDS011;1161;51.922;8.896;2023-02-18T06:46:08;7.60;;;3.70;;
2305;SDS011;1161;51.922;8.896;2023-02-18T06:48:35;14.00;;;6.07;;
2305;SDS011;1161;51.922;8.896;2023-02-18T06:51:05;8.70;;;4.53;;
2305;SDS011;1161;51.922;8.896;2023-02-18T06:53:34;7.97;;;3.83;;
2305;SDS011;1161;51.922;8.896;2023-02-18T06:56:01;11.20;;;4.33;;
2305;SDS011;1161;51.922;8.896;2023-02-18T06:58:28;5.10;;;3.80;;
2305;SDS011;1161;51.922;8.896;2023-02-18T07:00:57;9.17;;;4.47;;
2305;SDS011;1161;51.922;8.896;2023-02-18T07:03:25;3.67;;;2.70;;
2305;SDS011;1161;51.922;8.896;2023-02-18T07:05:53;7.40;;;3.40;;
2305;SDS011;1161;51.922;8.896;2023-02-18T07:08:22;5.03;;;3.70;;
2305;SDS011;1161;51.922;8.896;2023-02-18T07:10:51;5.93;;;3.80;;
2305;SDS011;1161;51.922;8.896;2023-02-18T07:13:18;2.20;;;1.90;;
2305;SDS011;1161;51.922;8.896;2023-02-18T07:15:46;5.43;;;2.63;;
2305;SDS011;1161;51.922;8.896;2023-02-18T07:18:15;5.07;;;1.67;;
2305;SDS011;1161;51.922;8.896;2023-02-18T07:20:42;2.80;;;2.43;;
2305;SDS011;1161;51.922;8.896;2023-02-18T07:23:11;3.17;;;1.90;;
2305;SDS011;1161;51.922;8.896;2023-02-18T07:25:38;1.17;;;1.17;;
2305;SDS011;1161;51.922;8.896;2023-02-18T07:28:06;1.93;;;1.80;;
2305;SDS011;1161;51.922;8.896;2023-02-18T07:30:33;8.13;;;1.90;;
2305;SDS011;1161;51.922;8.896;2023-02-18T07:33:00;3.67;;;2.43;;
2305;SDS011;1161;51.922;8.896;2023-02-18T07:35:28;1.30;;;1.30;;
2305;SDS011;1161;51.922;8.896;2023-02-18T07:37:57;4.70;;;4.10;;
2305;SDS011;1161;51.922;8.896;2023-02-18T07:40:25;1.90;;;1.80;;
2305;SDS011;1161;51.922;8.896;2023-02-18T07:42:52;1.40;;;1.30;;
2305;SDS011;1161;51.922;8.896;2023-02-18T07:45:19;1.80;;;1.70;;
2305;SDS011;1161;51.922;8.896;2023-02-18T07:47:45;3.67;;;2.50;;
2305;SDS011;1161;51.922;8.896;2023-02-18T07:50:12;2.00;;;1.77;;
2305;SDS011;1161;51.922;8.896;2023-02-18T07:52:40;4.97;;;2.40;;
2305;SDS011;1161;51.922;8.896;2023-02-18T07:55:07;2.57;;;2.47;;
2305;SDS011;1161;51.922;8.896;2023-02-18T07:57:34;2.50;;;2.10;;
2305;SDS011;1161;51.922;8.896;2023-02-18T08:00:21;7.37;;;5.00;;
2305;SDS011;1161;51.922;8.896;2023-02-18T08:02:48;3.17;;;2.97;;
2305;SDS011;1161;51.922;8.896;2023-02-18T08:05:15;1.87;;;1.70;;
2305;SDS011;1161;51.922;8.896;2023-02-18T08:07:43;7.67;;;4.20;;
2305;SDS011;1161;51.922;8.896;2023-02-18T08:10:10;10.30;;;3.97;;
2305;SDS011;1161;51.922;8.896;2023-02-18T08:12:36;4.00;;;2.30;;
2305;SDS011;1161;51.922;8.896;2023-02-18T08:15:03;6.17;;;3.53;;
2305;SDS011;1161;51.922;8.896;2023-02-18T08:17:30;12.47;;;7.43;;
2305;SDS011;1161;51.922;8.896;2023-02-18T08:19:57;5.70;;;2.23;;
2305;SDS011;1161;51.922;8.896;2023-02-18T08:22:24;1.60;;;1.60;;
2305;SDS011;1161;51.922;8.896;2023-02-18T08:24:53;4.30;;;3.57;;
2305;SDS011;1161;51.922;8.896;2023-02-18T08:27:21;12.03;;;7.23;;
2305;SDS011;1161;51.922;8.896;2023-02-18T08:29:48;3.93;;;3.03;;
2305;SDS011;1161;51.922;8.896;2023-02-18T08:32:15;7.10;;;5.20;;
2305;SDS011;1161;51.922;8.896;2023-02-18T08:34:42;2.00;;;1.90;;
2305;SDS011;1161;51.922;8.896;2023-02-18T08:37:09;2.53;;;2.33;;
2305;SDS011;1161;51.922;8.896;2023-02-18T08:39:35;5.73;;;4.37;;
2305;SDS011;1161;51.922;8.896;2023-02-18T08:42:04;3.33;;;3.00;;
2305;SDS011;1161;51.922;8.896;2023-02-18T08:44:31;8.10;;;3.90;;
2305;SDS011;1161;51.922;8.896;2023-02-18T08:46:58;6.17;;;5.20;;
2305;SDS011;1161;51.922;8.896;2023-02-18T08:49:24;6.27;;;4.83;;
2305;SDS011;1161;51.922;8.896;2023-02-18T08:51:51;7.50;;;4.47;;
2305;SDS011;1161;51.922;8.896;2023-02-18T08:54:18;9.50;;;5.80;;
2305;SDS011;1161;51.922;8.896;2023-02-18T08:56:44;5.67;;;4.07;;
2305;SDS011;1161;51.922;8.896;2023-02-18T08:59:13;9.57;;;6.00;;
2305;SDS011;1161;51.922;8.896;2023-02-18T09:01:39;10.80;;;6.67;;
2305;SDS011;1161;51.922;8.896;2023-02-18T09:04:06;8.83;;;5.20;;
2305;SDS011;1161;51.922;8.896;2023-02-18T09:06:35;10.53;;;6.40;;
2305;SDS011;1161;51.922;8.896;2023-02-18T09:09:02;8.77;;;6.67;;
2305;SDS011;1161;51.922;8.896;2023-02-18T09:11:29;9.70;;;6.40;;
2305;SDS011;1161;51.922;8.896;2023-02-18T09:13:55;7.27;;;6.00;;
2305;SDS011;1161;51.922;8.896;2023-02-18T09:16:23;11.00;;;7.47;;
2305;SDS011;1161;51.922;8.896;2023-02-18T09:18:51;7.90;;;6.20;;
2305;SDS011;1161;51.922;8.896;2023-02-18T09:21:17;10.60;;;5.10;;
2305;SDS011;1161;51.922;8.896;2023-02-18T09:23:45;12.07;;;7.60;;
2305;SDS011;1161;51.922;8.896;2023-02-18T09:26:12;11.10;;;6.40;;
2305;SDS011;1161;51.922;8.896;2023-02-18T09:28:40;7.70;;;5.47;;
2305;SDS011;1161;51.922;8.896;2023-02-18T09:31:07;9.30;;;6.97;;
2305;SDS011;1161;51.922;8.896;2023-02-18T09:33:36;7.50;;;5.93;;
2305;SDS011;1161;51.922;8.896;2023-02-18T09:36:04;10.50;;;7.27;;
2305;SDS011;1161;51.922;8.896;2023-02-18T09:38:31;9.53;;;6.00;;
2305;SDS011;1161;51.922;8.896;2023-02-18T09:40:59;9.13;;;7.80;;
2305;SDS011;1161;51.922;8.896;2023-02-18T09:43:28;12.13;;;7.77;;
2305;SDS011;1161;51.922;8.896;2023-02-18T09:45:57;13.67;;;8.10;;
2305;SDS011;1161;51.922;8.896;2023-02-18T09:48:25;14.40;;;8.67;;
2305;SDS011;1161;51.922;8.896;2023-02-18T09:50:54;11.87;;;8.37;;
2305;SDS011;1161;51.922;8.896;2023-02-18T09:53:21;14.57;;;7.33;;
2305;SDS011;1161;51.922;8.896;2023-02-18T09:55:50;13.23;;;7.90;;
2305;SDS011;1161;51.922;8.896;2023-02-18T09:58:18;16.43;;;10.67;;
2305;SDS011;1161;51.922;8.896;2023-02-18T10:00:48;14.90;;;8.67;;
2305;SDS011;1161;51.922;8.896;2023-02-18T10:03:17;17.57;;;8.73;;
2305;SDS011;1161;51.922;8.896;2023-02-18T10:05:49;12.40;;;7.80;;
2305;SDS011;1161;51.922;8.896;2023-02-18T10:08:22;10.07;;;4.60;;
2305;SDS011;1161;51.922;8.896;2023-02-18T10:10:50;15.70;;;8.90;;
2305;SDS011;1161;51.922;8.896;2023-02-18T10:13:17;12.00;;;5.03;;
2305;SDS011;1161;51.922;8.896;2023-02-18T10:15:45;10.80;;;6.73;;
2305;SDS011;1161;51.922;8.896;2023-02-18T10:18:18;10.20;;;6.30;;
2305;SDS011;1161;51.922;8.896;2023-02-18T10:20:48;7.47;;;5.67;;
2305;SDS011;1161;51.922;8.896;2023-02-18T10:23:17;8.13;;;4.90;;
2305;SDS011;1161;51.922;8.896;2023-02-18T10:25:44;14.03;;;6.30;;
2305;SDS011;1161;51.922;8.896;2023-02-18T10:28:11;9.93;;;7.23;;
2305;SDS011;1161;51.922;8.896;2023-02-18T10:30:39;12.57;;;7.07;;
2305;SDS011;1161;51.922;8.896;2023-02-18T10:33:12;11.67;;;7.50;;
2305;SDS011;1161;51.922;8.896;2023-02-18T10:35:46;9.33;;;6.23;;
2305;SDS011;1161;51.922;8.896;2023-02-18T10:38:19;8.93;;;6.07;;
2305;SDS011;1161;51.922;8.896;2023-02-18T10:40:54;8.07;;;5.70;;
2305;SDS011;1161;51.922;8.896;2023-02-18T10:43:25;15.17;;;8.80;;
2305;SDS011;1161;51.922;8.896;2023-02-18T10:45:57;11.80;;;7.03;;
2305;SDS011;1161;51.922;8.896;2023-02-18T10:48:31;16.50;;;5.23;;
2305;SDS011;1161;51.922;8.896;2023-02-18T10:51:07;16.87;;;5.77;;
2305;SDS011;1161;51.922;8.896;2023-02-18T10:53:41;10.70;;;4.93;;
2305;SDS011;1161;51.922;8.896;2023-02-18T10:56:11;8.23;;;4.87;;
2305;SDS011;1161;51.922;8.896;2023-02-18T10:58:59;6.03;;;4.40;;
2305;SDS011;1161;51.922;8.896;2023-02-18T11:01:27;5.30;;;3.57;;
2305;SDS011;1161;51.922;8.896;2023-02-18T11:04:03;9.47;;;5.27;;
2305;SDS011;1161;51.922;8.896;2023-02-18T11:06:32;10.13;;;5.43;;
2305;SDS011;1161;51.922;8.896;2023-02-18T11:09:05;6.83;;;4.20;;
2305;SDS011;1161;51.922;8.896;2023-02-18T11:11:35;12.10;;;7.37;;
2305;SDS011;1161;51.922;8.896;2023-02-18T11:14:04;8.83;;;6.27;;
2305;SDS011;1161;51.922;8.896;2023-02-18T11:16:35;13.43;;;6.90;;
2305;SDS011;1161;51.922;8.896;2023-02-18T11:19:03;16.17;;;8.30;;
2305;SDS011;1161;51.922;8.896;2023-02-18T11:21:31;14.80;;;8.67;;
2305;SDS011;1161;51.922;8.896;2023-02-18T11:24:06;16.40;;;8.43;;
2305;SDS011;1161;51.922;8.896;2023-02-18T11:26:35;17.23;;;8.63;;
2305;SDS011;1161;51.922;8.896;2023-02-18T11:29:05;17.90;;;9.80;;
2305;SDS011;1161;51.922;8.896;2023-02-18T11:31:38;17.60;;;9.93;;
2305;SDS011;1161;51.922;8.896;2023-02-18T11:34:09;16.20;;;8.00;;
2305;SDS011;1161;51.922;8.896;2023-02-18T11:36:40;16.53;;;10.10;;
2305;SDS011;1161;51.922;8.896;2023-02-18T11:39:14;24.90;;;12.63;;
2305;SDS011;1161;51.922;8.896;2023-02-18T11:41:45;23.53;;;10.70;;
2305;SDS011;1161;51.922;8.896;2023-02-18T11:44:17;19.93;;;11.10;;
2305;SDS011;1161;51.922;8.896;2023-02-18T11:46:54;22.70;;;11.30;;
2305;SDS011;1161;51.922;8.896;2023-02-18T11:49:23;18.57;;;12.00;;
2305;SDS011;1161;51.922;8.896;2023-02-18T11:51:50;18.57;;;8.60;;
2305;SDS011;1161;51.922;8.896;2023-02-18T11:54:21;16.63;;;8.87;;
2305;SDS011;1161;51.922;8.896;2023-02-18T11:56:54;21.60;;;9.77;;
2305;SDS011;1161;51.922;8.896;2023-02-18T11:59:22;17.67;;;9.30;;
2305;SDS011;1161;51.922;8.896;2023-02-18T12:01:50;26.17;;;12.90;;
2305;SDS011;1161;51.922;8.896;2023-02-18T12:04:18;24.23;;;12.83;;
2305;SDS011;1161;51.922;8.896;2023-02-18T12:06:51;22.83;;;9.00;;
2305;SDS011;1161;51.922;8.896;2023-02-18T12:09:23;19.97;;;9.73;;
2305;SDS011;1161;51.922;8.896;2023-02-18T12:11:54;23.57;;;9.93;;
2305;SDS011;1161;51.922;8.896;2023-02-18T12:14:22;17.27;;;9.77;;
2305;SDS011;1161;51.922;8.896;2023-02-18T12:16:56;19.30;;;8.60;;
2305;SDS011;1161;51.922;8.896;2023-02-18T12:19:51;17.37;;;8.50;;
2305;SDS011;1161;51.922;8.896;2023-02-18T12:22:27;19.57;;;9.50;;
2305;SDS011;1161;51.922;8.896;2023-02-18T12:25:12;13.27;;;8.60;;
2305;SDS011;1161;51.922;8.896;2023-02-18T12:28:10;15.97;;;8.60;;
2305;SDS011;1161;51.922;8.896;2023-02-18T12:30:47;23.67;;;9.80;;
2305;SDS011;1161;51.922;8.896;2023-02-18T12:33:27;12.93;;;8.27;;
2305;SDS011;1161;51.922;8.896;2023-02-18T12:36:01;20.37;;;8.40;;
2305;SDS011;1161;51.922;8.896;2023-02-18T12:38:39;13.20;;;7.90;;
2305;SDS011;1161;51.922;8.896;2023-02-18T12:41:20;14.93;;;7.03;;
2305;SDS011;1161;51.922;8.896;2023-02-18T12:43:54;12.13;;;6.40;;
2305;SDS011;1161;51.922;8.896;2023-02-18T12:46:32;18.53;;;9.63;;
2305;SDS011;1161;51.922;8.896;2023-02-18T12:49:09;16.77;;;7.73;;
2305;SDS011;1161;51.922;8.896;2023-02-18T12:51:51;16.33;;;8.90;;
2305;SDS011;1161;51.922;8.896;2023-02-18T12:54:35;17.37;;;10.13;;
2305;SDS011;1161;51.922;8.896;2023-02-18T12:57:15;11.40;;;6.80;;
2305;SDS011;1161;51.922;8.896;2023-02-18T12:59:56;9.23;;;6.03;;
2305;SDS011;1161;51.922;8.896;2023-02-18T13:02:43;18.33;;;7.87;;
2305;SDS011;1161;51.922;8.896;2023-02-18T13:05:18;9.57;;;6.50;;
2305;SDS011;1161;51.922;8.896;2023-02-18T13:07:53;12.77;;;7.90;;
2305;SDS011;1161;51.922;8.896;2023-02-18T13:10:33;15.03;;;6.87;;
2305;SDS011;1161;51.922;8.896;2023-02-18T13:13:09;10.77;;;7.00;;
2305;SDS011;1161;51.922;8.896;2023-02-18T13:15:38;13.23;;;6.47;;
2305;SDS011;1161;51.922;8.896;2023-02-18T13:18:08;8.53;;;6.00;;
2305;SDS011;1161;51.922;8.896;2023-02-18T13:20:38;12.50;;;7.57;;
2305;SDS011;1161;51.922;8.896;2023-02-18T13:23:06;10.10;;;7.03;;
2305;SDS011;1161;51.922;8.896;2023-02-18T13:25:41;25.67;;;7.30;;
2305;SDS011;1161;51.922;8.896;2023-02-18T13:28:12;15.87;;;7.50;;
2305;SDS011;1161;51.922;8.896;2023-02-18T13:30:44;13.43;;;6.20;;
2305;SDS011;1161;51.922;8.896;2023-02-18T13:33:16;8.97;;;6.60;;
2305;SDS011;1161;51.922;8.896;2023-02-18T13:35:45;15.83;;;6.40;;
2305;SDS011;1161;51.922;8.896;2023-02-18T13:41:12;8.47;;;5.83;;
2305;SDS011;1161;51.922;8.896;2023-02-18T13:43:40;7.90;;;6.10;;
2305;SDS011;1161;51.922;8.896;2023-02-18T13:46:09;9.10;;;6.60;;
2305;SDS011;1161;51.922;8.896;2023-02-18T13:48:41;8.10;;;6.50;;
2305;SDS011;1161;51.922;8.896;2023-02-18T13:51:10;9.80;;;6.60;;
2305;SDS011;1161;51.922;8.896;2023-02-18T13:53:38;12.60;;;7.03;;
2305;SDS011;1161;51.922;8.896;2023-02-18T13:56:07;9.40;;;6.90;;
2305;SDS011;1161;51.922;8.896;2023-02-18T13:58:36;9.10;;;4.97;;
2305;SDS011;1161;51.922;8.896;2023-02-18T14:01:12;10.17;;;6.77;;
2305;SDS011;1161;51.922;8.896;2023-02-18T14:03:51;8.43;;;5.73;;
2305;SDS011;1161;51.922;8.896;2023-02-18T14:06:20;13.03;;;5.20;;
2305;SDS011;1161;51.922;8.896;2023-02-18T14:08:49;10.70;;;8.10;;
2305;SDS011;1161;51.922;8.896;2023-02-18T14:11:23;16.00;;;9.30;;
2305;SDS011;1161;51.922;8.896;2023-02-18T14:22:54;16.07;;;7.73;;
2305;SDS011;1161;51.922;8.896;2023-02-18T14:25:21;13.20;;;7.80;;
2305;SDS011;1161;51.922;8.896;2023-02-18T14:28:00;16.00;;;8.77;;
2305;SDS011;1161;51.922;8.896;2023-02-18T14:30:30;14.00;;;7.00;;
2305;SDS011;1161;51.922;8.896;2023-02-18T14:33:00;12.20;;;7.27;;
2305;SDS011;1161;51.922;8.896;2023-02-18T14:35:28;6.23;;;5.30;;
2305;SDS011;1161;51.922;8.896;2023-02-18T14:38:01;6.70;;;4.73;;
2305;SDS011;1161;51.922;8.896;2023-02-18T14:40:57;9.70;;;6.50;;
2305;SDS011;1161;51.922;8.896;2023-02-18T14:43:45;10.50;;;6.90;;
2305;SDS011;1161;51.922;8.896;2023-02-18T14:46:27;10.87;;;6.73;;
2305;SDS011;1161;51.922;8.896;2023-02-18T14:51:48;10.30;;;6.40;;
2305;SDS011;1161;51.922;8.896;2023-02-18T14:54:18;8.90;;;6.70;;
2305;SDS011;1161;51.922;8.896;2023-02-18T14:56:51;13.33;;;7.60;;
2305;SDS011;1161;51.922;8.896;2023-02-18T14:59:21;13.33;;;6.50;;
2305;SDS011;1161;51.922;8.896;2023-02-18T15:01:52;12.33;;;7.30;;
2305;SDS011;1161;51.922;8.896;2023-02-18T15:04:19;11.30;;;6.53;;
2305;SDS011;1161;51.922;8.896;2023-02-18T15:06:46;11.90;;;6.57;;
2305;SDS011;1161;51.922;8.896;2023-02-18T15:09:23;15.20;;;7.67;;
2305;SDS011;1161;51.922;8.896;2023-02-18T15:11:51;13.60;;;7.77;;
2305;SDS011;1161;51.922;8.896;2023-02-18T15:14:22;8.13;;;6.40;;
2305;SDS011;1161;51.922;8.896;2023-02-18T15:16:52;10.23;;;6.03;;
2305;SDS011;1161;51.922;8.896;2023-02-18T15:19:19;15.03;;;7.80;;
2305;SDS011;1161;51.922;8.896;2023-02-18T15:21:48;10.20;;;7.23;;
2305;SDS011;1161;51.922;8.896;2023-02-18T15:24:19;12.80;;;6.23;;
2305;SDS011;1161;51.922;8.896;2023-02-18T15:26:49;11.10;;;6.03;;
2305;SDS011;1161;51.922;8.896;2023-02-18T15:29:17;7.27;;;5.03;;
2305;SDS011;1161;51.922;8.896;2023-02-18T15:31:45;11.80;;;7.37;;
2305;SDS011;1161;51.922;8.896;2023-02-18T15:34:18;8.33;;;4.93;;
2305;SDS011;1161;51.922;8.896;2023-02-18T15:36:55;9.63;;;5.73;;
2305;SDS011;1161;51.922;8.896;2023-02-18T15:39:22;12.00;;;6.33;;
2305;SDS011;1161;51.922;8.896;2023-02-18T15:41:50;14.90;;;6.73;;